Time;durP1;ratioP1;P1;durP2;ratioP2;P2;SDS_P1;SDS_P2;PMS_P1;PMS_P2;Temp;Humidity;BMP_temperature;BMP_pressure;BME280_temperature;BME280_humidity;BME280_pressure;Samples;Min_cycle;Max_cycle;Signal;HPM_P1;HPM_P2
2021/07/10 00:01:16;;;;;;;3.47;2.40;;;14.40;99.90;;;13.98;92.56;101555.19;4169349;28;20041;-73
2021/07/10 00:03:17;;;;;;;3.75;2.03;;;14.30;99.90;;;14.03;92.92;101558.22;4169499;28;20060;-73
2021/07/10 00:05:18;;;;;;;2.22;1.90;;;14.30;99.90;;;13.96;93.00;101569.59;4169145;28;20104;-73
2021/07/10 00:07:19;;;;;;;4.82;1.90;;;14.30;99.90;;;13.95;93.23;101566.13;4168147;28;20021;-74
2021/07/10 00:09:21;;;;;;;2.40;2.20;;;14.30;99.90;;;13.98;92.71;101565.81;4169340;28;20496;-74
2021/07/10 00:11:22;;;;;;;2.60;1.85;;;14.30;99.90;;;14.03;92.20;101558.22;4151674;28;20127;-73
2021/07/10 00:13:24;;;;;;;2.33;1.95;;;14.20;99.90;;;14.11;91.58;101558.25;4168160;28;20033;-74
2021/07/10 00:15:26;;;;;;;2.63;2.00;;;14.30;99.90;;;13.97;91.32;101545.59;4168218;28;20026;-73
2021/07/10 00:17:27;;;;;;;2.58;2.17;;;14.20;99.90;;;13.81;92.09;101534.88;4167977;28;20037;-73
2021/07/10 00:19:28;;;;;;;2.45;1.60;;;14.20;99.90;;;13.84;92.43;101532.75;4169233;28;20086;-73
2021/07/10 00:21:29;;;;;;;3.45;2.40;;;14.10;99.90;;;13.83;92.65;101539.03;4168893;28;20068;-74
2021/07/10 00:23:30;;;;;;;4.20;2.42;;;14.10;99.90;;;13.82;93.22;101544.50;4167993;28;20029;-74
2021/07/10 00:25:31;;;;;;;4.72;1.83;;;14.10;99.90;;;13.86;93.36;101541.38;4167827;28;20548;-74
2021/07/10 00:27:32;;;;;;;4.50;2.33;;;14.20;99.90;;;14.01;93.00;101551.41;4168982;28;20111;-74
2021/07/10 00:29:33;;;;;;;2.65;1.90;;;14.10;99.90;;;14.00;93.22;101545.28;4167855;28;20030;-74
2021/07/10 00:31:34;;;;;;;2.05;1.85;;;14.20;99.90;;;14.01;93.14;101546.91;4200843;28;20032;-74
2021/07/10 00:33:35;;;;;;;3.13;2.10;;;14.30;99.90;;;14.06;92.90;101542.00;4167525;28;20036;-73
2021/07/10 00:35:37;;;;;;;2.65;2.13;;;14.30;99.90;;;14.03;93.32;101549.44;4166750;28;20081;-74
2021/07/10 00:37:38;;;;;;;3.50;2.05;;;14.30;99.90;;;13.97;93.84;101536.78;4169073;28;20042;-73
2021/07/10 00:39:38;;;;;;;4.80;2.22;;;14.30;99.90;;;13.96;93.93;101525.34;4167537;28;20041;-74
2021/07/10 00:41:39;;;;;;;2.70;2.15;;;14.30;99.90;;;13.89;93.91;101513.69;4163930;28;20156;-73
2021/07/10 00:43:40;;;;;;;5.05;2.17;;;14.30;99.90;;;13.85;94.32;101510.56;4168729;28;20436;-74
2021/07/10 00:45:41;;;;;;;2.50;1.98;;;14.20;99.90;;;13.84;95.10;101516.00;4168986;28;20051;-74
2021/07/10 00:47:43;;;;;;;3.05;1.95;;;14.20;99.90;;;13.85;94.85;101505.25;4167728;28;20022;-73
2021/07/10 00:49:44;;;;;;;5.57;2.10;;;14.30;99.90;;;13.90;95.28;101514.53;4168517;28;20036;-74
2021/07/10 00:51:45;;;;;;;3.20;2.28;;;14.20;99.90;;;13.85;95.66;101518.50;4167359;28;20112;-74
2021/07/10 00:53:48;;;;;;;2.72;2.10;;;14.20;99.90;;;13.95;95.55;101520.22;4168884;28;20030;-73
2021/07/10 00:55:50;;;;;;;4.65;2.20;;;14.30;99.90;;;14.06;94.90;101530.53;4167719;28;20026;-74
2021/07/10 00:57:53;;;;;;;2.33;2.10;;;14.30;99.90;;;14.11;94.08;101529.06;4167526;28;20423;-74
2021/07/10 00:59:54;;;;;;;2.60;1.90;;;14.40;99.90;;;14.08;94.04;101512.63;4167468;28;20049;-74
2021/07/10 01:01:55;;;;;;;2.60;2.00;;;14.40;99.90;;;14.17;93.97;101514.31;4167502;28;20030;-74
2021/07/10 01:03:56;;;;;;;3.55;2.28;;;14.40;99.90;;;14.15;93.41;101500.41;4167373;28;20234;-73
2021/07/10 01:05:58;;;;;;;4.63;2.30;;;14.50;99.90;;;14.11;93.95;101509.66;4167223;28;20025;-74
2021/07/10 01:07:59;;;;;;;3.42;2.45;;;14.50;99.90;;;14.11;94.34;101510.50;4167392;28;20022;-74
2021/07/10 01:10:02;;;;;;;2.10;1.90;;;14.50;99.90;;;14.15;94.07;101514.50;4167545;28;20021;-74
2021/07/10 01:12:03;;;;;;;7.97;2.55;;;14.50;99.90;;;14.18;93.81;101511.53;4167412;28;20461;-74
2021/07/10 01:14:06;;;;;;;2.45;2.22;;;14.50;99.90;;;14.19;93.79;101515.81;4167325;28;20116;-73
2021/07/10 01:16:07;;;;;;;3.38;1.80;;;14.50;99.90;;;14.27;92.93;101505.25;4167261;28;20523;-74
2021/07/10 01:18:08;;;;;;;2.60;2.08;;;14.50;99.90;;;14.30;93.21;101507.59;4168583;28;20496;-74
2021/07/10 01:20:14;;;;;;;3.40;2.17;;;14.60;99.90;;;14.28;92.98;101504.25;4167030;28;20559;-73
2021/07/10 01:22:15;;;;;;;3.88;2.17;;;14.60;99.90;;;14.30;93.21;101498.78;4151384;28;20549;-74
2021/07/10 01:24:16;;;;;;;2.35;1.92;;;14.60;99.90;;;14.31;93.43;101503.09;4150627;28;20022;-74
2021/07/10 01:26:19;;;;;;;3.65;2.08;;;14.60;99.90;;;14.41;92.49;101493.19;4167370;28;20025;-74
2021/07/10 01:28:20;;;;;;;2.50;1.70;;;14.60;99.90;;;14.44;92.54;101494.69;4167174;28;20025;-74
2021/07/10 01:30:22;;;;;;;2.78;1.90;;;14.70;99.90;;;14.44;92.46;101481.41;4168404;28;20044;-74
2021/07/10 01:32:24;;;;;;;3.47;1.83;;;14.70;99.90;;;14.27;93.28;101475.22;4183518;28;20037;-73
2021/07/10 01:34:25;;;;;;;2.10;1.90;;;14.70;99.90;;;14.25;93.33;101478.03;4167295;28;20076;-74
2021/07/10 01:36:28;;;;;;;2.58;2.03;;;14.70;99.90;;;14.34;94.07;101492.16;4167213;28;20033;-74
2021/07/10 01:38:29;;;;;;;8.88;2.17;;;14.70;99.90;;;14.37;93.63;101492.69;4167034;28;20029;-74
2021/07/10 01:40:32;;;;;;;2.92;1.90;;;14.70;99.90;;;14.37;94.07;101490.03;4168244;28;20570;-74
2021/07/10 01:42:33;;;;;;;5.00;2.03;;;14.70;99.90;;;14.33;94.45;101487.88;4183406;28;20076;-74
2021/07/10 01:44:35;;;;;;;3.08;1.90;;;14.70;99.90;;;14.45;94.22;101499.84;4167068;28;20105;-74
2021/07/10 01:46:36;;;;;;;2.85;2.35;;;14.70;99.90;;;14.48;93.64;101490.72;4152906;28;20021;-74
2021/07/10 01:48:37;;;;;;;2.55;1.90;;;14.80;99.90;;;14.47;93.68;101487.25;4170163;28;20034;-74
2021/07/10 01:50:38;;;;;;;4.85;2.08;;;14.80;99.90;;;14.47;92.78;101473.13;4171331;28;20388;-74
2021/07/10 01:52:41;;;;;;;4.25;2.00;;;14.80;99.90;;;14.46;92.81;101474.13;4171520;28;20029;-74
2021/07/10 01:54:42;;;;;;;2.90;2.35;;;14.80;99.90;;;14.45;93.08;101469.81;4153827;28;20398;-74
2021/07/10 01:56:43;;;;;;;3.65;1.92;;;14.80;99.90;;;14.39;93.49;101453.53;4170135;28;20040;-74
2021/07/10 01:58:44;;;;;;;3.35;2.40;;;14.80;99.90;;;14.40;93.82;101446.41;4170275;28;20034;-74
2021/07/10 02:00:46;;;;;;;2.35;2.00;;;14.80;99.90;;;14.42;93.81;101452.41;4170193;28;20026;-74
2021/07/10 02:02:48;;;;;;;3.47;2.03;;;14.80;99.90;;;14.43;94.34;101447.91;4170008;28;20049;-74
2021/07/10 02:04:51;;;;;;;4.18;2.28;;;14.80;99.90;;;14.48;93.89;101437.63;4169727;28;20064;-74
2021/07/10 02:06:52;;;;;;;2.75;1.98;;;14.80;99.90;;;14.49;93.65;101426.84;4171365;28;20044;-74
2021/07/10 02:08:54;;;;;;;2.08;1.85;;;14.80;99.90;;;14.50;93.67;101422.38;4170048;28;20065;-74
2021/07/10 02:10:55;;;;;;;3.45;2.20;;;14.80;99.90;;;14.49;94.07;101418.03;4170079;28;20025;-74
2021/07/10 02:13:08;;;;;;;3.58;2.30;;;14.90;99.90;;;14.46;94.01;101415.72;4169922;28;20036;-74
2021/07/10 02:15:10;;;;;;;3.13;1.85;;;14.80;99.90;;;14.47;94.43;101422.69;4153485;28;20105;-74
2021/07/10 02:17:11;;;;;;;4.00;2.20;;;14.80;99.90;;;14.42;94.43;101430.31;4169988;28;20039;-73
2021/07/10 02:19:12;;;;;;;3.28;1.75;;;14.80;99.90;;;14.46;94.52;101426.34;4171034;28;20025;-74
2021/07/10 02:21:13;;;;;;;3.83;2.05;;;14.80;99.90;;;14.49;93.59;101415.38;4169615;28;20033;-74
2021/07/10 02:23:14;;;;;;;4.30;2.10;;;14.80;99.90;;;14.49;93.73;101426.00;4171119;28;20033;-73
2021/07/10 02:25:19;;;;;;;4.07;2.35;;;14.80;99.90;;;14.14;96.76;101433.22;4169745;28;20119;-74
2021/07/10 02:27:19;;;;;;;5.25;2.45;;;14.80;99.90;;;14.26;96.95;101431.09;4170855;28;20160;-74
2021/07/10 02:29:20;;;;;;;5.07;2.55;;;14.70;99.90;;;14.33;97.28;101432.16;4169816;28;20021;-74
2021/07/10 02:31:22;;;;;;;5.82;2.50;;;14.80;99.90;;;14.39;97.12;101428.84;4169758;28;20103;-74
2021/07/10 02:33:23;;;;;;;5.32;2.63;;;14.80;99.90;;;14.35;97.66;101415.06;4170850;28;20041;-74
2021/07/10 02:35:24;;;;;;;2.75;2.15;;;14.80;99.90;;;14.40;97.92;101410.06;4170496;28;20032;-74
2021/07/10 02:37:26;;;;;;;6.63;2.85;;;14.80;99.90;;;14.31;98.46;101412.84;4170861;28;20033;-74
2021/07/10 02:39:28;;;;;;;4.88;2.55;;;14.80;99.90;;;14.29;98.80;101409.53;4169320;28;20041;-74
2021/07/10 02:41:29;;;;;;;5.00;2.83;;;14.80;99.90;;;14.45;98.19;101411.41;4164373;28;20025;-73
2021/07/10 02:43:30;;;;;;;3.22;2.17;;;14.70;99.90;;;14.55;97.09;101417.38;4169419;28;20048;-74
2021/07/10 02:45:31;;;;;;;3.78;2.20;;;14.80;99.90;;;14.54;97.79;101407.78;4169420;28;20030;-74
2021/07/10 02:47:32;;;;;;;3.60;2.40;;;14.80;99.90;;;14.49;97.88;101394.16;4170608;28;20053;-73
2021/07/10 02:49:33;;;;;;;4.80;2.90;;;14.80;99.90;;;14.52;98.20;101394.66;4169106;28;20041;-73
2021/07/10 02:51:34;;;;;;;3.83;2.50;;;14.80;99.90;;;14.42;98.67;101403.78;4169336;28;20393;-74
2021/07/10 02:53:35;;;;;;;3.47;2.40;;;14.80;99.90;;;14.44;98.81;101401.78;4169292;28;20038;-74
2021/07/10 02:55:36;;;;;;;4.07;2.35;;;14.80;99.90;;;14.52;98.85;101392.00;4169402;28;20030;-74
2021/07/10 02:57:37;;;;;;;3.28;2.30;;;14.80;99.90;;;14.61;98.19;101395.47;4168190;28;20176;-74
2021/07/10 02:59:40;;;;;;;3.20;2.55;;;14.80;99.90;;;14.46;98.48;101373.25;4169268;28;20032;-74
2021/07/10 03:01:41;;;;;;;2.90;2.15;;;14.80;99.90;;;14.45;98.96;101371.59;4168809;28;20092;-74
2021/07/10 03:03:42;;;;;;;2.60;2.38;;;14.80;99.90;;;14.37;99.44;101359.13;4170435;28;20484;-74
2021/07/10 03:05:43;;;;;;;4.40;2.80;;;14.80;99.90;;;14.41;99.93;101371.09;4170407;28;20085;-74
2021/07/10 03:07:45;;;;;;;3.33;2.60;;;14.80;99.90;;;14.55;99.26;101365.13;4169070;28;20018;-74
2021/07/10 03:09:46;;;;;;;3.85;2.60;;;14.80;99.90;;;14.60;98.98;101364.63;4152472;28;20034;-74
2021/07/10 03:11:48;;;;;;;4.65;2.80;;;14.80;99.90;;;14.48;99.70;101356.19;4169133;28;20076;-74
2021/07/10 03:13:49;;;;;;;3.08;2.70;;;14.80;99.90;;;14.33;100.00;101341.91;4170104;28;20033;-74
2021/07/10 03:15:50;;;;;;;5.13;3.22;;;14.80;99.90;;;14.38;100.00;101343.06;4170053;28;20040;-74
2021/07/10 03:17:52;;;;;;;3.10;2.80;;;14.70;99.90;;;14.46;100.00;101341.38;4170086;28;20026;-74
2021/07/10 03:19:54;;;;;;;4.18;3.22;;;14.80;99.90;;;14.37;100.00;101345.88;4168605;28;20060;-74
2021/07/10 03:21:54;;;;;;;6.13;3.15;;;14.80;99.90;;;14.34;100.00;101348.84;4169880;28;20065;-74
2021/07/10 03:23:55;;;;;;;4.22;2.80;;;14.80;99.90;;;14.35;100.00;101356.66;4168504;28;20108;-73
2021/07/10 03:25:57;;;;;;;5.32;3.22;;;14.70;99.90;;;14.29;100.00;101354.63;4168596;28;20527;-73
2021/07/10 03:27:58;;;;;;;3.65;2.80;;;14.70;99.90;;;14.28;100.00;101349.47;4168842;28;20508;-74
2021/07/10 03:29:59;;;;;;;4.50;3.08;;;14.70;99.90;;;14.25;100.00;101345.34;4152241;28;20044;-74
2021/07/10 03:32:00;;;;;;;5.28;3.22;;;14.70;99.90;;;14.18;100.00;101349.66;4169841;28;20499;-74
2021/07/10 03:34:01;;;;;;;3.45;3.00;;;14.70;99.90;;;14.28;100.00;101344.16;4169678;28;20068;-74
2021/07/10 03:36:05;;;;;;;4.72;2.97;;;14.70;99.90;;;14.28;100.00;101337.03;4168376;28;20462;-74
2021/07/10 03:38:06;;;;;;;4.97;3.20;;;14.70;99.90;;;14.33;100.00;101333.94;4168526;28;20065;-74
2021/07/10 03:40:13;;;;;;;4.00;2.95;;;14.70;99.90;;;14.33;100.00;101332.13;4168249;28;20045;-74
2021/07/10 03:42:14;;;;;;;4.97;3.15;;;14.70;99.90;;;14.20;100.00;101344.19;4169324;28;20030;-74
2021/07/10 03:44:15;;;;;;;4.13;2.90;;;14.70;99.90;;;14.34;100.00;101347.03;4168401;28;20116;-74
2021/07/10 03:46:16;;;;;;;5.05;3.00;;;14.80;99.90;;;14.39;100.00;101339.41;4168373;28;20025;-74
2021/07/10 03:48:17;;;;;;;4.00;2.85;;;14.70;99.90;;;14.45;100.00;101331.78;4168290;28;20406;-74
2021/07/10 03:50:19;;;;;;;4.47;3.25;;;14.70;99.90;;;14.26;100.00;101333.75;4169020;28;20026;-74
2021/07/10 03:52:20;;;;;;;4.00;3.15;;;14.80;99.90;;;14.43;100.00;101328.44;4168330;28;20021;-74
2021/07/10 03:54:21;;;;;;;2.97;2.67;;;14.80;99.90;;;14.42;100.00;101325.00;4168280;28;20584;-74
2021/07/10 03:56:22;;;;;;;4.00;3.13;;;14.80;99.90;;;14.46;100.00;101317.50;4164955;28;20021;-74
2021/07/10 03:58:23;;;;;;;4.32;2.70;;;14.80;99.90;;;14.43;100.00;101317.81;4168348;28;20116;-74
2021/07/10 04:00:24;;;;;;;2.90;2.20;;;14.80;99.90;;;14.54;100.00;101321.00;4169492;28;20025;-74
2021/07/10 04:02:25;;;;;;;3.33;2.80;;;14.80;99.90;;;14.49;100.00;101311.84;4168081;28;20061;-74
2021/07/10 04:04:26;;;;;;;3.20;2.88;;;14.80;99.90;;;14.44;100.00;101309.72;4167889;28;20025;-74
2021/07/10 04:06:28;;;;;;;6.15;2.65;;;14.80;99.90;;;14.40;100.00;101317.16;4168243;28;20041;-74
2021/07/10 04:08:29;;;;;;;4.15;3.47;;;14.80;99.90;;;14.25;100.00;101321.44;4168007;28;20053;-74
2021/07/10 04:10:29;;;;;;;4.53;3.38;;;14.80;99.90;;;14.17;100.00;101325.94;4169317;28;20505;-74
2021/07/10 04:12:30;;;;;;;5.32;3.50;;;14.70;99.90;;;14.09;100.00;101321.47;4169252;28;20025;-73
2021/07/10 04:14:31;;;;;;;7.55;4.32;;;14.70;99.90;;;14.15;100.00;101314.66;4169104;28;20034;-73
2021/07/10 04:16:32;;;;;;;4.18;3.30;;;14.70;99.90;;;14.19;100.00;101314.16;4169257;28;20026;-73
2021/07/10 04:18:33;;;;;;;4.20;3.13;;;14.60;99.90;;;14.25;100.00;101302.88;4169167;28;20108;-73
2021/07/10 04:20:34;;;;;;;4.85;2.55;;;14.70;99.90;;;14.36;100.00;101309.72;4167728;28;20049;-74
2021/07/10 04:22:37;;;;;;;3.45;2.72;;;14.70;99.90;;;14.36;100.00;101315.03;4167764;28;20025;-74
2021/07/10 04:24:38;;;;;;;4.35;3.40;;;14.70;99.90;;;14.25;100.00;101313.50;4167901;28;20093;-74
2021/07/10 04:26:39;;;;;;;6.68;4.25;;;14.70;99.90;;;14.32;100.00;101311.88;4184312;28;20028;-74
2021/07/10 04:28:39;;;;;;;4.18;2.90;;;14.80;99.90;;;14.36;100.00;101317.69;4169132;28;20543;-74
2021/07/10 04:30:40;;;;;;;3.85;3.35;;;14.80;99.90;;;14.16;100.00;101314.47;4168908;28;20033;-74
2021/07/10 04:32:42;;;;;;;3.92;3.50;;;14.70;99.90;;;14.18;100.00;101323.13;4167799;28;20033;-74
2021/07/10 04:34:43;;;;;;;4.38;3.33;;;14.70;99.90;;;14.17;100.00;101316.16;4150947;28;20061;-74
2021/07/10 04:36:44;;;;;;;5.60;3.58;;;14.70;99.90;;;14.20;100.00;101310.50;4167705;28;20064;-74
2021/07/10 04:38:45;;;;;;;4.72;3.03;;;14.70;99.90;;;14.11;100.00;101315.97;4177651;28;20053;-74
2021/07/10 04:40:46;;;;;;;4.05;3.13;;;14.70;99.90;;;14.24;100.00;101311.84;4201902;28;20056;-74
2021/07/10 04:42:47;;;;;;;4.50;3.17;;;14.70;99.90;;;14.34;100.00;101319.66;4201978;28;20480;-74
2021/07/10 04:44:48;;;;;;;4.25;3.58;;;14.70;99.90;;;14.39;100.00;101322.66;4167526;28;20018;-74
2021/07/10 04:46:49;;;;;;;4.05;3.00;;;14.70;99.90;;;14.39;100.00;101320.00;4201809;28;20036;-74
2021/07/10 04:48:50;;;;;;;3.20;2.90;;;14.80;99.90;;;14.46;100.00;101325.47;4202090;28;20032;-74
2021/07/10 04:50:51;;;;;;;3.33;2.60;;;14.80;99.90;;;14.48;100.00;101318.19;4183868;28;20032;-74
2021/07/10 04:52:52;;;;;;;4.85;3.30;;;14.80;99.90;;;14.55;100.00;101316.50;4184030;28;20124;-73
2021/07/10 04:54:53;;;;;;;4.53;2.90;;;14.90;99.90;;;14.50;100.00;101311.69;4184031;28;20561;-74
2021/07/10 04:56:54;;;;;;;4.07;2.78;;;14.90;99.90;;;14.57;100.00;101325.13;4183893;28;20056;-74
2021/07/10 04:58:55;;;;;;;5.07;2.75;;;14.90;99.90;;;14.61;100.00;101313.16;4183965;28;20041;-73
2021/07/10 05:00:56;;;;;;;3.05;2.60;;;14.90;99.90;;;14.53;100.00;101311.38;4201775;28;20025;-74
2021/07/10 05:02:57;;;;;;;5.38;2.83;;;14.90;99.90;;;14.58;100.00;101332.91;4183822;28;20032;-74
2021/07/10 05:04:58;;;;;;;5.03;2.70;;;14.90;99.90;;;14.50;100.00;101330.28;4183579;28;20093;-74
2021/07/10 05:06:58;;;;;;;2.65;2.40;;;14.90;99.90;;;14.59;100.00;101329.28;4167391;28;20060;-74
2021/07/10 05:08:59;;;;;;;3.83;2.92;;;15.00;99.90;;;14.60;100.00;101330.94;4200516;28;20063;-74
2021/07/10 05:11:00;;;;;;;3.95;3.00;;;15.00;99.90;;;14.58;100.00;101322.31;4183739;28;20516;-73
2021/07/10 05:13:02;;;;;;;4.40;3.10;;;15.00;99.90;;;14.69;100.00;101318.50;4183939;28;20060;-74
2021/07/10 05:15:04;;;;;;;6.70;3.63;;;15.00;99.90;;;14.68;100.00;101303.53;4184001;28;20032;-74
2021/07/10 05:17:05;;;;;;;5.07;3.60;;;15.00;99.90;;;14.69;100.00;101278.66;4183838;28;20021;-73
2021/07/10 05:19:06;;;;;;;4.05;3.25;;;15.00;99.90;;;14.72;100.00;101270.34;4183820;28;20096;-74
2021/07/10 05:21:07;;;;;;;4.65;3.00;;;15.00;99.90;;;14.55;100.00;101271.34;4202708;28;20111;-74
2021/07/10 05:23:08;;;;;;;5.07;4.00;;;15.00;99.90;;;14.54;100.00;101286.47;4205107;28;20047;-74
2021/07/10 05:25:10;;;;;;;5.78;3.83;;;15.00;99.90;;;14.38;100.00;101305.91;4187182;28;20502;-74
2021/07/10 05:27:11;;;;;;;4.35;3.50;;;15.00;99.90;;;14.29;100.00;101309.53;4187278;28;20029;-74
2021/07/10 05:29:12;;;;;;;5.60;3.90;;;14.90;99.90;;;14.48;100.00;101318.19;4204714;28;20027;-74
2021/07/10 05:31:13;;;;;;;6.35;3.60;;;14.90;99.90;;;14.46;100.00;101309.53;4204985;28;20028;-74
2021/07/10 05:33:19;;;;;;;4.35;3.65;;;14.90;99.90;;;14.46;100.00;101309.53;4204925;28;20032;-74
2021/07/10 05:35:22;;;;;;;5.07;3.65;;;14.90;99.90;;;14.45;100.00;101300.75;4204529;28;20051;-74
2021/07/10 05:37:23;;;;;;;5.55;4.47;;;14.90;99.90;;;14.48;100.00;101303.09;4204936;28;20596;-74
2021/07/10 05:39:23;;;;;;;5.07;3.47;;;14.90;99.90;;;14.44;100.00;101306.22;4204649;28;20067;-74
2021/07/10 05:41:24;;;;;;;8.50;3.67;;;14.90;99.90;;;14.45;100.00;101299.94;4186935;28;20025;-74
2021/07/10 05:43:25;;;;;;;5.88;3.28;;;14.90;99.90;;;14.57;100.00;101290.63;4186994;28;20025;-74
2021/07/10 05:45:27;;;;;;;6.03;3.70;;;14.90;99.90;;;14.55;100.00;101300.56;4186928;28;20033;-74
2021/07/10 05:47:28;;;;;;;5.82;3.92;;;15.00;99.90;;;14.51;100.00;101308.06;4186863;28;20105;-73
2021/07/10 05:49:30;;;;;;;6.40;3.88;;;15.00;99.90;;;14.44;100.00;101300.91;4204355;28;20020;-74
2021/07/10 05:51:31;;;;;;;4.78;3.92;;;15.00;99.90;;;14.34;100.00;101293.13;4186816;28;20058;-74
2021/07/10 05:53:32;;;;;;;6.95;3.83;;;14.90;99.90;;;14.40;100.00;101297.75;4204626;28;20040;-74
2021/07/10 05:55:33;;;;;;;6.20;4.07;;;14.90;99.90;;;14.49;100.00;101304.72;4186844;28;20033;-74
2021/07/10 05:57:34;;;;;;;7.65;4.47;;;15.00;99.90;;;14.33;100.00;101294.97;4204465;28;20037;-74
2021/07/10 05:59:35;;;;;;;9.55;4.43;;;15.00;99.90;;;14.43;100.00;101291.28;4170058;28;20066;-74
2021/07/10 06:01:36;;;;;;;8.57;4.32;;;15.00;99.90;;;14.51;100.00;101292.13;4204239;28;20039;-73
2021/07/10 06:03:37;;;;;;;6.50;3.42;;;15.10;99.90;;;14.69;100.00;101289.28;4204336;28;20021;-73
2021/07/10 06:05:38;;;;;;;5.35;4.10;;;15.20;99.90;;;14.67;100.00;101288.59;4203973;28;20028;-74
2021/07/10 06:07:39;;;;;;;6.35;3.72;;;15.30;99.90;;;14.59;100.00;101299.25;4204229;28;20032;-74
2021/07/10 06:09:40;;;;;;;6.45;3.47;;;15.20;99.90;;;14.62;100.00;101290.94;4204077;28;20032;-74
2021/07/10 06:11:41;;;;;;;4.90;3.60;;;15.30;99.90;;;14.74;100.00;101293.06;4186345;28;20040;-74
2021/07/10 06:13:42;;;;;;;5.43;3.60;;;15.30;99.90;;;14.75;100.00;101286.78;4186320;28;20036;-74
2021/07/10 06:15:43;;;;;;;3.75;3.13;;;15.30;99.90;;;14.84;100.00;101292.91;4204040;28;20025;-74
2021/07/10 06:17:44;;;;;;;5.25;3.42;;;15.30;99.90;;;14.76;100.00;101280.44;4186194;28;20029;-74
2021/07/10 06:19:45;;;;;;;5.28;3.53;;;15.30;99.90;;;14.85;100.00;101281.25;4186102;28;20527;-74
2021/07/10 06:21:46;;;;;;;7.18;3.80;;;15.40;99.90;;;14.93;100.00;101286.56;4186276;28;20036;-74
2021/07/10 06:23:49;;;;;;;3.38;3.00;;;15.50;99.90;;;15.02;100.00;101288.19;4203966;28;20029;-74
2021/07/10 06:25:50;;;;;;;4.47;3.40;;;15.50;99.90;;;15.00;100.00;101281.38;4169748;28;20041;-74
2021/07/10 06:27:51;;;;;;;5.07;3.13;;;15.60;99.90;;;14.94;100.00;101286.38;4203937;28;20496;-73
2021/07/10 06:29:52;;;;;;;4.85;3.40;;;15.60;99.90;;;14.84;100.00;101264.47;4169468;28;20030;-74
2021/07/10 06:31:53;;;;;;;4.15;3.17;;;15.60;99.90;;;14.95;100.00;101265.94;4203736;28;20028;-74
2021/07/10 06:33:54;;;;;;;4.13;3.50;;;15.70;99.90;;;15.04;100.00;101274.72;4185997;28;20074;-74
2021/07/10 06:35:54;;;;;;;5.03;3.50;;;15.70;99.90;;;15.06;100.00;101273.53;4185770;28;20072;-74
2021/07/10 06:37:55;;;;;;;6.93;3.92;;;15.70;99.90;;;15.06;100.00;101270.88;4185965;28;20108;-74
2021/07/10 06:39:56;;;;;;;6.15;3.08;;;15.70;99.90;;;15.07;100.00;101269.06;4185645;28;20045;-74
2021/07/10 06:41:57;;;;;;;5.35;3.35;;;15.70;99.90;;;15.16;100.00;101265.38;4185792;28;20039;-74
2021/07/10 06:43:59;;;;;;;4.05;2.97;;;15.80;99.90;;;15.23;100.00;101261.84;4203708;28;20024;-74
2021/07/10 06:46:02;;;;;;;5.10;3.63;;;15.90;99.90;;;15.29;100.00;101265.66;4185860;28;20021;-74
2021/07/10 06:48:03;;;;;;;4.82;3.15;;;16.00;99.90;;;15.44;100.00;101263.91;4186029;28;20048;-74
2021/07/10 06:50:07;;;;;;;5.07;3.85;;;16.10;99.90;;;15.36;100.00;101258.63;4203104;28;20031;-74
2021/07/10 06:52:08;;;;;;;4.82;3.60;;;16.10;99.90;;;15.39;100.00;101261.75;4185698;28;20104;-74
2021/07/10 06:54:10;;;;;;;6.13;3.67;;;16.20;99.90;;;15.49;100.00;101256.25;4203660;28;20522;-74
2021/07/10 06:56:11;;;;;;;6.07;3.47;;;16.20;99.90;;;15.29;100.00;101241.72;4169074;28;20037;-74
2021/07/10 06:58:12;;;;;;;4.28;2.85;;;16.30;99.90;;;15.43;100.00;101257.75;4203347;28;20034;-74
2021/07/10 07:00:17;;;;;;;5.25;2.70;;;16.20;99.90;;;15.61;100.00;101254.03;4185812;28;20021;-74
2021/07/10 07:02:17;;;;;;;6.03;3.40;;;16.30;99.90;;;15.61;100.00;101256.69;4169022;28;20025;-74
2021/07/10 07:04:19;;;;;;;4.93;3.97;;;16.30;99.90;;;15.38;100.00;101260.09;4203073;28;20075;-74
2021/07/10 07:06:20;;;;;;;3.63;3.30;;;16.20;99.90;;;15.33;100.00;101256.31;4203177;28;20029;-74
2021/07/10 07:08:21;;;;;;;5.35;3.20;;;16.10;99.90;;;15.42;100.00;101265.91;4203310;28;20372;-74
2021/07/10 07:10:22;;;;;;;7.50;3.55;;;16.10;99.90;;;15.45;100.00;101257.56;4168849;28;20059;-74
2021/07/10 07:12:23;;;;;;;5.20;3.00;;;16.10;99.90;;;15.54;100.00;101253.06;4185358;28;20578;-74
2021/07/10 07:14:24;;;;;;;5.03;3.10;;;16.20;99.90;;;15.63;100.00;101252.00;4203207;28;20032;-74
2021/07/10 07:16:26;;;;;;;3.72;2.92;;;16.30;99.90;;;15.69;100.00;101262.78;4185330;28;20036;-74
2021/07/10 07:18:26;;;;;;;3.28;2.92;;;16.30;99.90;;;15.83;100.00;101266.53;4185358;28;20038;-74
2021/07/10 07:20:28;;;;;;;4.95;3.50;;;16.40;99.90;;;15.91;100.00;101256.66;4202719;28;20133;-74
2021/07/10 07:22:29;;;;;;;7.80;3.50;;;16.50;99.90;;;15.79;100.00;101252.75;4185105;28;20037;-74
2021/07/10 07:24:30;;;;;;;7.50;3.28;;;16.50;99.90;;;15.68;100.00;101247.00;4185161;28;20581;-74
2021/07/10 07:26:31;;;;;;;5.40;3.13;;;16.50;99.90;;;15.60;100.00;101245.22;4202855;28;20093;-74
2021/07/10 07:28:32;;;;;;;4.97;3.35;;;16.50;99.90;;;15.74;100.00;101247.09;4202920;28;20020;-74
2021/07/10 07:30:34;;;;;;;8.93;3.53;;;16.50;99.90;;;15.88;100.00;101232.22;4184927;28;20039;-74
2021/07/10 07:32:35;;;;;;;5.75;2.67;;;16.70;99.90;;;16.04;100.00;101238.22;4202946;28;20033;-74
2021/07/10 07:34:37;;;;;;;3.78;3.13;;;16.70;99.90;;;15.97;100.00;101249.78;4202368;28;20028;-74
2021/07/10 07:36:39;;;;;;;5.72;3.00;;;16.80;99.90;;;15.97;100.00;101257.75;4168483;28;20033;-74
2021/07/10 07:38:40;;;;;;;4.43;2.95;;;16.70;99.90;;;15.97;100.00;101249.78;4202387;28;20461;-74
2021/07/10 07:40:41;;;;;;;4.90;2.85;;;16.70;99.90;;;16.03;100.00;101254.38;4185224;28;20021;-74
2021/07/10 07:42:43;;;;;;;6.07;2.97;;;16.80;99.90;;;16.03;100.00;101246.41;4184835;28;20060;-74
2021/07/10 07:44:45;;;;;;;5.57;3.35;;;16.80;99.90;;;15.96;100.00;101253.44;4202467;28;20020;-74
2021/07/10 07:46:46;;;;;;;3.67;2.92;;;16.70;99.90;;;16.10;100.00;101254.50;4184771;28;20057;-74
2021/07/10 07:48:47;;;;;;;5.68;3.40;;;16.90;99.90;;;15.89;100.00;101255.13;4168204;28;20068;-74
2021/07/10 07:50:48;;;;;;;6.38;3.70;;;16.90;99.90;;;15.95;100.00;101254.44;4184717;28;20039;-74
2021/07/10 07:52:50;;;;;;;4.60;3.05;;;16.90;99.90;;;16.10;100.00;101254.50;4184895;28;20100;-74
2021/07/10 07:54:50;;;;;;;4.10;3.22;;;16.90;99.90;;;16.02;100.00;101248.22;4184704;28;20037;-74
2021/07/10 07:56:51;;;;;;;4.80;3.20;;;16.90;99.90;;;16.19;100.00;101256.91;4202556;28;20115;-74
2021/07/10 07:58:53;;;;;;;7.28;3.15;;;16.90;99.90;;;16.20;100.00;101252.41;4184929;28;20037;-74
2021/07/10 08:00:55;;;;;;;6.88;3.55;;;17.00;99.90;;;16.04;100.00;101246.22;4202469;28;20074;-74
2021/07/10 08:02:56;;;;;;;5.82;3.25;;;17.00;99.90;;;16.14;100.00;101251.28;4184293;28;20082;-74
2021/07/10 08:04:57;;;;;;;6.30;3.30;;;16.90;99.90;;;16.17;100.00;101250.94;4184455;28;20025;-74
2021/07/10 08:06:57;;;;;;;5.57;3.70;;;16.90;99.90;;;16.26;100.00;101249.84;4202423;28;20017;-74
2021/07/10 08:08:58;;;;;;;6.63;3.75;;;17.00;99.90;;;16.26;100.00;101265.00;4202270;28;20025;-74
2021/07/10 08:10:59;;;;;;;7.68;3.65;;;17.10;99.90;;;16.33;100.00;101253.47;4184439;28;20122;-74
2021/07/10 08:13:00;;;;;;;6.03;4.25;;;17.10;99.90;;;16.16;100.00;101243.94;4184620;28;20044;-74
2021/07/10 08:15:02;;;;;;;6.75;3.80;;;17.10;99.90;;;16.29;100.00;101249.50;4184569;28;20080;-74
2021/07/10 08:17:05;;;;;;;4.75;3.97;;;17.10;99.90;;;16.18;100.00;101257.91;4184415;28;20028;-74
2021/07/10 08:19:06;;;;;;;5.55;4.25;;;17.10;99.90;;;16.20;100.00;101255.91;4201681;28;20103;-74
2021/07/10 08:21:08;;;;;;;6.30;3.80;;;17.00;99.90;;;16.10;100.00;101243.84;4200854;28;20024;-74